createdAt,value
2018-12-24T00:01:44.401Z,97870.62
2018-12-24T00:04:15.228Z,97872.55
2018-12-24T00:06:46.214Z,97860.72
2018-12-24T00:09:16.890Z,97858.00
2018-12-24T00:11:47.583Z,97853.34
2018-12-24T00:14:18.202Z,97860.59
2018-12-24T00:16:48.926Z,97862.98
2018-12-24T00:19:19.602Z,97854.81
2018-12-24T00:21:50.249Z,97860.22
2018-12-24T00:24:21.103Z,97865.64
2018-12-24T00:26:51.958Z,97844.78
2018-12-24T00:29:22.564Z,97857.03
2018-12-24T00:31:53.272Z,97852.59
2018-12-24T00:34:23.915Z,97861.84
2018-12-24T00:36:54.627Z,97860.11
2018-12-24T00:39:25.239Z,97849.34
2018-12-24T00:41:57.020Z,97849.34
2018-12-24T00:44:27.667Z,97850.31
2018-12-24T00:46:58.377Z,97846.02
2018-12-24T00:49:29.108Z,97851.37
2018-12-24T00:51:59.827Z,97855.98
2018-12-24T00:54:30.403Z,97864.77
2018-12-24T00:57:01.303Z,97862.61
2018-12-24T00:59:31.945Z,97859.67
2018-12-24T01:02:02.683Z,97857.51
2018-12-24T01:04:33.359Z,97864.59
2018-12-24T01:07:04.195Z,97867.25
2018-12-24T01:09:34.819Z,97859.98
2018-12-24T01:12:05.395Z,97875.11
2018-12-24T01:14:36.280Z,97866.92
2018-12-24T01:17:06.931Z,97882.74
2018-12-24T01:19:37.803Z,97875.22
2018-12-24T01:22:08.385Z,97877.22
2018-12-24T01:24:39.275Z,97878.56
2018-12-24T01:27:10.033Z,97850.69
2018-12-24T01:29:40.663Z,97851.50
2018-12-24T01:32:11.565Z,97848.47
2018-12-24T01:34:42.243Z,97846.95
2018-12-24T01:37:13.087Z,97866.77
2018-12-24T01:39:43.690Z,97860.71
2018-12-24T01:42:14.368Z,97852.91
2018-12-24T01:44:45.028Z,97855.30
2018-12-24T01:47:15.853Z,97845.39
2018-12-24T01:49:46.473Z,97825.90
2018-12-24T01:52:17.118Z,97818.91
2018-12-24T01:54:47.783Z,97828.98
2018-12-24T01:57:18.749Z,97829.36
2018-12-24T01:59:49.409Z,97824.00
2018-12-24T02:02:20.195Z,97820.00
2018-12-24T02:04:50.838Z,97819.52
2018-12-24T02:07:21.489Z,97813.13
2018-12-24T02:09:52.255Z,97825.84
2018-12-24T02:12:22.929Z,97826.16
2018-12-24T02:14:53.595Z,97823.45
2018-12-24T02:17:24.203Z,97827.26
2018-12-24T02:19:54.944Z,97833.80
2018-12-24T02:22:25.619Z,97844.06
2018-12-24T02:24:56.285Z,97849.48
2018-12-24T02:27:27.030Z,97856.80
2018-12-24T02:29:57.729Z,97865.52
2018-12-24T02:32:28.340Z,97877.45
2018-12-24T02:34:59.134Z,97879.90
2018-12-24T02:37:29.709Z,97891.84
2018-12-24T02:40:00.344Z,97890.50
2018-12-24T02:42:30.974Z,97872.33
2018-12-24T02:45:01.528Z,98045.14
2018-12-24T02:47:32.299Z,98117.41
2018-12-24T02:50:03.047Z,98014.70
2018-12-24T02:52:33.720Z,98026.64
2018-12-24T02:55:04.289Z,98027.37
2018-12-24T02:57:35.037Z,98027.66
2018-12-24T03:00:05.962Z,98042.13
2018-12-24T03:02:36.704Z,98045.30
2018-12-24T03:05:07.629Z,98053.98
2018-12-24T03:07:38.304Z,98054.59
2018-12-24T03:10:09.013Z,98045.27
2018-12-24T03:12:39.829Z,98047.16
2018-12-24T03:15:10.414Z,98046.76
2018-12-24T03:17:41.148Z,98054.61
2018-12-24T03:20:11.739Z,98057.09
2018-12-24T03:22:42.522Z,98068.48
2018-12-24T03:25:13.203Z,98086.78
2018-12-24T03:27:43.945Z,98087.14
2018-12-24T03:30:14.631Z,98081.77
2018-12-24T03:32:46.177Z,98088.78
2018-12-24T03:35:16.883Z,98085.92
2018-12-24T03:37:47.619Z,98093.98
2018-12-24T03:40:18.263Z,98098.53
2018-12-24T03:42:49.058Z,98100.72
2018-12-24T03:45:21.040Z,98096.16
2018-12-24T03:47:52.674Z,98097.05
2018-12-24T03:50:23.333Z,98114.24
2018-12-24T03:52:54.009Z,98143.09
2018-12-24T03:55:24.575Z,98152.23
2018-12-24T03:57:57.575Z,98153.90
2018-12-24T04:00:28.257Z,98166.05
2018-12-24T04:02:58.853Z,98182.78
2018-12-24T04:05:29.552Z,98189.00
2018-12-24T04:08:00.280Z,98225.09
2018-12-24T04:10:30.920Z,98228.37
2018-12-24T04:13:01.536Z,98238.60
2018-12-24T04:15:32.165Z,98225.69
2018-12-24T04:18:02.830Z,98226.27
2018-12-24T04:20:33.392Z,98238.13
2018-12-24T04:23:04.149Z,98259.92
2018-12-24T04:25:39.840Z,98275.25
2018-12-24T04:28:10.522Z,98282.27
2018-12-24T04:30:41.125Z,98293.27
2018-12-24T04:33:11.880Z,98289.52
2018-12-24T04:35:42.717Z,98302.97
2018-12-24T04:38:13.306Z,98322.32
2018-12-24T04:40:44.081Z,98321.78
2018-12-24T04:43:14.666Z,98333.88
2018-12-24T04:45:45.417Z,98336.31
2018-12-24T04:48:16.084Z,98348.13
2018-12-24T04:50:46.814Z,98358.37
2018-12-24T04:53:17.365Z,98367.50
2018-12-24T04:55:48.148Z,98384.16
2018-12-24T04:58:18.720Z,98395.16
2018-12-24T05:00:49.560Z,98405.66
2018-12-24T05:03:20.133Z,98404.33
2018-12-24T05:05:50.792Z,98415.59
2018-12-24T05:08:21.419Z,98433.36
2018-12-24T05:10:52.093Z,98443.25
2018-12-24T05:13:22.925Z,98435.75
2018-12-24T05:15:53.497Z,98449.16
2018-12-24T05:18:24.128Z,98455.86
2018-12-24T05:20:54.984Z,98471.70
2018-12-24T05:24:27.035Z,98496.97
2018-12-24T05:30:02.679Z,98540.18
2018-12-24T05:35:37.835Z,98536.29
2018-12-24T05:52:55.944Z,98607.16
2018-12-24T05:55:26.120Z,98611.14
2018-12-24T06:01:02.362Z,98632.62
2018-12-24T06:16:23.366Z,98673.51
2018-12-24T06:25:05.814Z,98698.72
2018-12-24T06:27:36.007Z,98719.17
2018-12-24T06:41:49.302Z,98752.86
2018-12-24T06:44:59.225Z,98765.56
2018-12-24T06:47:48.469Z,98781.08
2018-12-24T06:56:10.415Z,98818.50
2018-12-24T07:08:07.009Z,98862.20
2018-12-24T07:26:03.193Z,98909.70
2018-12-24T07:28:33.447Z,98929.16
2018-12-24T07:31:03.777Z,98937.72
2018-12-24T07:45:57.156Z,98963.05
2018-12-24T07:51:52.110Z,98961.44
2018-12-24T08:00:33.081Z,98966.73
2018-12-24T08:03:03.442Z,98968.42
2018-12-24T08:05:33.956Z,98974.70
2018-12-24T08:08:07.508Z,98976.08
2018-12-24T08:10:37.843Z,98987.33
2018-12-24T08:13:08.492Z,98991.39
2018-12-24T08:15:38.911Z,98990.36
2018-12-24T08:18:09.266Z,98998.59
2018-12-24T08:20:39.542Z,99002.61
2018-12-24T08:23:10.112Z,99007.07
2018-12-24T08:25:40.750Z,99007.77
2018-12-24T08:28:11.043Z,99014.78
2018-12-24T08:30:41.373Z,99017.46
2018-12-24T08:33:11.898Z,99015.77
2018-12-24T08:35:42.387Z,99016.89
2018-12-24T08:38:12.776Z,99021.80
2018-12-24T08:40:43.605Z,99025.00
2018-12-24T08:43:13.987Z,99031.02
2018-12-24T08:45:44.373Z,99037.81
2018-12-24T08:48:15.075Z,99046.78
2018-12-24T08:50:45.337Z,99042.66
2018-12-24T08:53:15.587Z,99039.11
2018-12-24T08:55:45.866Z,99044.92
2018-12-24T08:58:16.114Z,99051.20
2018-12-24T09:00:46.386Z,99058.78
2018-12-24T09:03:16.580Z,99056.23
2018-12-24T09:05:46.722Z,99062.55
2018-12-24T09:08:16.872Z,99075.77
2018-12-24T09:10:47.011Z,99077.50
2018-12-24T09:13:17.318Z,99075.98
2018-12-24T09:15:50.445Z,99081.36
2018-12-24T09:18:20.708Z,99085.69
2018-12-24T09:20:52.837Z,99096.31
2018-12-24T09:23:24.371Z,99106.48
2018-12-24T09:25:54.982Z,99101.02
2018-12-24T09:28:25.224Z,99111.98
2018-12-24T09:30:55.429Z,99116.48
2018-12-24T09:33:25.606Z,99112.89
2018-12-24T09:35:55.802Z,99113.29
2018-12-24T09:38:26.126Z,99117.80
2018-12-24T09:40:56.320Z,99125.13
2018-12-24T09:43:26.463Z,99128.33
2018-12-24T09:45:56.734Z,99139.08
2018-12-24T09:48:26.941Z,99143.81
2018-12-24T09:50:57.195Z,99156.94
2018-12-24T09:53:27.392Z,99164.61
2018-12-24T09:55:57.663Z,99159.94
2018-12-24T09:58:27.918Z,99168.34
2018-12-24T10:00:58.084Z,99173.28
2018-12-24T10:03:42.187Z,99170.59
2018-12-24T10:06:15.610Z,99168.20
2018-12-24T10:08:46.030Z,99174.79
2018-12-24T10:11:16.148Z,99186.23
2018-12-24T10:13:47.431Z,99189.00
2018-12-24T10:16:17.722Z,99186.73
2018-12-24T10:18:47.875Z,99187.70
2018-12-24T10:21:18.119Z,99182.51
2018-12-24T10:23:48.268Z,99185.62
2018-12-24T10:26:18.517Z,99182.22
2018-12-24T10:28:48.693Z,99188.34
2018-12-24T10:31:18.838Z,99190.59
2018-12-24T10:33:49.178Z,99187.27
2018-12-24T10:36:19.334Z,99189.09
2018-12-24T10:38:51.624Z,99200.12
2018-12-24T10:41:24.466Z,99210.06
2018-12-24T10:43:55.184Z,99208.98
2018-12-24T10:46:25.672Z,99212.30
2018-12-24T10:48:55.988Z,99211.66
2018-12-24T10:51:26.273Z,99215.21
2018-12-24T10:53:56.418Z,99215.14
2018-12-24T10:56:26.774Z,99222.47
2018-12-24T10:58:56.902Z,99216.94
2018-12-24T11:01:27.049Z,99210.20
2018-12-24T11:03:57.190Z,99209.78
2018-12-24T11:06:27.519Z,99218.58
2018-12-24T11:08:57.797Z,99214.46
2018-12-24T11:11:29.963Z,99215.96
2018-12-24T11:14:00.138Z,99218.73
2018-12-24T11:16:30.358Z,99228.78
2018-12-24T11:19:00.513Z,99220.21
2018-12-24T11:21:30.655Z,99220.22
2018-12-24T11:24:00.818Z,99227.64
2018-12-24T11:26:31.049Z,99228.59
2018-12-24T11:29:01.363Z,99225.60
2018-12-24T11:31:31.543Z,99219.25
2018-12-24T11:34:01.737Z,99223.50
2018-12-24T11:36:31.963Z,99226.13
2018-12-24T11:39:02.211Z,99234.27
2018-12-24T11:41:33.344Z,99228.48
2018-12-24T11:44:03.565Z,99229.64
2018-12-24T11:46:34.727Z,99227.92
2018-12-24T11:49:04.897Z,99232.73
2018-12-24T11:51:35.141Z,99232.89
2018-12-24T11:54:05.338Z,99238.47
2018-12-24T11:56:38.905Z,99239.52
2018-12-24T11:59:09.321Z,99237.27
2018-12-24T12:01:39.584Z,99247.05
2018-12-24T12:04:09.888Z,99256.82
2018-12-24T12:06:40.125Z,99256.82
2018-12-24T12:09:10.366Z,99254.02
2018-12-24T12:11:40.510Z,99267.98
2018-12-24T12:14:10.706Z,99271.73
2018-12-24T12:16:40.915Z,99274.33
2018-12-24T12:19:11.105Z,99280.58
2018-12-24T12:21:44.628Z,99276.33
2018-12-24T12:24:15.153Z,99284.48
2018-12-24T12:26:45.445Z,99283.39
2018-12-24T12:29:15.764Z,99290.86
2018-12-24T12:31:45.949Z,99297.29
2018-12-24T12:34:16.104Z,99295.52
2018-12-24T12:36:46.504Z,99291.20
2018-12-24T12:39:16.712Z,99294.75
2018-12-24T12:41:46.948Z,99302.30
2018-12-24T12:44:17.134Z,99301.96
2018-12-24T12:46:47.831Z,99301.41
2018-12-24T12:49:18.060Z,99303.10
2018-12-24T12:51:48.317Z,99306.77
2018-12-24T12:54:18.554Z,99307.89
2018-12-24T12:56:48.841Z,99309.00
2018-12-24T12:59:19.165Z,99323.30
2018-12-24T13:01:49.462Z,99324.58
2018-12-24T13:04:19.657Z,99327.97
2018-12-24T13:06:50.203Z,99334.56
2018-12-24T13:09:20.631Z,99335.28
2018-12-24T13:11:50.864Z,99351.70
2018-12-24T13:14:21.153Z,99355.19
2018-12-24T13:16:51.290Z,99356.77
2018-12-24T13:19:21.469Z,99362.06
2018-12-24T13:21:51.725Z,99363.56
2018-12-24T13:24:21.894Z,99359.97
2018-12-24T13:26:54.258Z,99360.98
2018-12-24T13:29:24.533Z,99357.67
2018-12-24T13:31:54.739Z,99362.31
2018-12-24T13:34:24.968Z,99359.71
2018-12-24T13:36:55.179Z,99368.00
2018-12-24T13:39:25.395Z,99377.67
2018-12-24T13:41:55.649Z,99370.27
2018-12-24T13:44:25.943Z,99372.19
2018-12-24T13:46:56.377Z,99361.18
2018-12-24T13:49:26.633Z,99362.25
2018-12-24T13:51:56.878Z,99373.95
2018-12-24T13:54:27.080Z,99371.85
2018-12-24T13:56:57.542Z,99376.69
2018-12-24T13:59:27.794Z,99376.13
2018-12-24T14:01:58.020Z,99377.28
2018-12-24T14:04:28.229Z,99384.81
2018-12-24T14:06:58.406Z,99381.97
2018-12-24T14:09:28.627Z,99401.72
2018-12-24T14:11:58.853Z,99396.66
2018-12-24T14:14:29.076Z,99392.72
2018-12-24T14:16:59.320Z,99402.62
2018-12-24T14:19:29.574Z,99403.65
2018-12-24T14:21:59.830Z,99412.81
2018-12-24T14:24:30.168Z,99413.50
2018-12-24T14:27:00.569Z,99423.23
2018-12-24T14:29:30.773Z,99424.41
2018-12-24T14:32:01.107Z,99426.12
2018-12-24T14:34:31.404Z,99432.19
2018-12-24T14:37:01.625Z,99431.02
2018-12-24T14:39:31.835Z,99424.69
2018-12-24T14:42:02.026Z,99426.83
2018-12-24T14:44:32.231Z,99435.20
2018-12-24T14:47:02.441Z,99434.38
2018-12-24T14:49:32.627Z,99441.84
2018-12-24T14:52:02.841Z,99442.95
2018-12-24T14:54:33.044Z,99453.69
2018-12-24T14:57:04.004Z,99456.95
2018-12-24T14:59:34.599Z,99458.26
2018-12-24T15:02:05.767Z,99456.55
2018-12-24T15:04:37.459Z,99458.92
2018-12-24T15:07:09.315Z,99458.69
2018-12-24T15:09:46.174Z,99464.47
2018-12-24T15:12:16.640Z,99465.22
2018-12-24T15:14:46.915Z,99464.94
2018-12-24T15:17:17.254Z,99456.95
2018-12-24T15:19:47.518Z,99460.53
2018-12-24T15:22:17.679Z,99466.14
2018-12-24T15:24:47.944Z,99474.02
2018-12-24T15:27:18.069Z,99475.77
2018-12-24T15:29:48.325Z,99483.47
2018-12-24T15:32:18.573Z,99480.13
2018-12-24T15:34:48.729Z,99470.75
2018-12-24T15:37:18.901Z,99484.48
2018-12-24T15:39:49.165Z,99486.03
2018-12-24T15:42:19.285Z,99493.56
2018-12-24T15:44:52.489Z,99491.88
2018-12-24T15:47:22.915Z,99483.36
2018-12-24T15:49:53.170Z,99496.32
2018-12-24T15:52:23.314Z,99521.37
2018-12-24T15:54:53.494Z,99520.12
2018-12-24T15:57:23.635Z,99508.20
2018-12-24T15:59:53.777Z,99509.67
2018-12-24T16:02:23.927Z,99518.27
2018-12-24T16:04:54.104Z,99514.69
2018-12-24T16:07:24.310Z,99513.50
2018-12-24T16:09:54.538Z,99524.81
2018-12-24T16:12:24.844Z,99538.29
2018-12-24T16:14:55.024Z,99543.73
2018-12-24T16:17:26.109Z,99540.81
2018-12-24T16:19:56.336Z,99540.81
2018-12-24T16:22:26.478Z,99536.04
2018-12-24T16:24:56.690Z,99536.79
2018-12-24T16:27:26.850Z,99536.52
2018-12-24T16:29:57.129Z,99544.08
2018-12-24T16:32:27.297Z,99553.61
2018-12-24T16:34:57.510Z,99555.34
2018-12-24T16:37:27.677Z,99553.10
2018-12-24T16:39:57.882Z,99564.17
2018-12-24T16:42:28.049Z,99553.26
2018-12-24T16:44:58.255Z,99574.37
2018-12-24T16:47:28.429Z,99572.22
2018-12-24T16:49:58.593Z,99561.42
2018-12-24T16:52:28.738Z,99569.41
2018-12-24T16:54:58.998Z,99568.35
2018-12-24T16:57:29.266Z,99567.98
2018-12-24T16:59:59.568Z,99562.55
2018-12-24T17:02:29.695Z,99572.95
2018-12-24T17:04:59.878Z,99575.63
2018-12-24T17:07:30.004Z,99577.13
2018-12-24T17:10:00.288Z,99577.07
2018-12-24T17:12:30.500Z,99580.63
2018-12-24T17:15:00.722Z,99585.02
2018-12-24T17:17:30.914Z,99588.72
2018-12-24T17:20:01.249Z,99599.44
2018-12-24T17:22:31.424Z,99599.89
2018-12-24T17:25:01.614Z,99602.34
2018-12-24T17:27:31.876Z,99605.59
2018-12-24T17:30:02.091Z,99607.93
2018-12-24T17:32:32.309Z,99617.50
2018-12-24T17:35:02.950Z,99616.16
2018-12-24T17:37:33.229Z,99618.77
2018-12-24T17:40:03.521Z,99622.63
2018-12-24T17:42:33.712Z,99626.65
2018-12-24T17:45:04.230Z,99629.41
2018-12-24T17:47:34.363Z,99635.20
2018-12-24T17:50:05.965Z,99634.69
2018-12-24T17:52:36.415Z,99629.09
2018-12-24T17:55:06.664Z,99632.74
2018-12-24T17:57:36.895Z,99637.88
2018-12-24T18:00:07.155Z,99628.41
2018-12-24T18:02:37.343Z,99631.69
2018-12-24T18:05:07.558Z,99643.59
2018-12-24T18:07:37.717Z,99639.12
2018-12-24T18:10:08.046Z,99640.03
2018-12-24T18:12:38.201Z,99643.14
2018-12-24T18:15:08.533Z,99641.72
2018-12-24T18:17:39.030Z,99645.33
2018-12-24T18:20:09.395Z,99645.92
2018-12-24T18:22:39.757Z,99649.34
2018-12-24T18:25:10.000Z,99640.77
2018-12-24T18:27:40.201Z,99635.56
2018-12-24T18:30:10.460Z,99643.96
2018-12-24T18:32:40.582Z,99642.42
2018-12-24T18:35:10.825Z,99648.66
2018-12-24T18:37:41.114Z,99655.67
2018-12-24T18:40:11.274Z,99652.81
2018-12-24T18:42:41.474Z,99657.74
2018-12-24T18:45:11.635Z,99655.91
2018-12-24T18:47:41.843Z,99661.11
2018-12-24T18:50:12.000Z,99662.73
2018-12-24T18:52:42.240Z,99664.80
2018-12-24T18:55:12.351Z,99660.23
2018-12-24T18:57:42.630Z,99671.94
2018-12-24T19:00:12.902Z,99674.68
2018-12-24T19:02:43.103Z,99678.91
2018-12-24T19:05:13.280Z,99684.91
2018-12-24T19:07:43.480Z,99691.88
2018-12-24T19:10:13.784Z,99689.35
2018-12-24T19:12:45.004Z,99697.64
2018-12-24T19:15:17.236Z,99693.08
2018-12-24T19:17:47.590Z,99696.39
2018-12-24T19:20:18.100Z,99692.66
2018-12-24T19:22:48.510Z,99689.35
2018-12-24T19:25:18.894Z,99689.11
2018-12-24T19:27:50.164Z,99694.45
2018-12-24T19:30:20.621Z,99703.31
2018-12-24T19:32:50.882Z,99706.19
2018-12-24T19:35:23.034Z,99707.62
2018-12-24T19:37:53.346Z,99702.84
2018-12-24T19:40:23.600Z,99698.48
2018-12-24T19:42:53.879Z,99690.42
2018-12-24T19:45:24.194Z,99690.61
2018-12-24T19:47:54.422Z,99687.84
2018-12-24T19:50:24.655Z,99686.54
2018-12-24T19:52:54.876Z,99687.02
2018-12-24T19:55:25.125Z,99691.63
2018-12-24T19:57:55.381Z,99699.33
2018-12-24T20:00:25.692Z,99710.22
2018-12-24T20:02:55.913Z,99723.19
2018-12-24T20:05:26.291Z,99734.27
2018-12-24T20:07:56.799Z,99746.20
2018-12-24T20:10:27.035Z,99737.73
2018-12-24T20:12:57.393Z,99747.73
2018-12-24T20:15:27.672Z,99745.92
2018-12-24T20:17:58.325Z,99753.37
2018-12-24T20:20:28.754Z,99759.16
2018-12-24T20:22:58.987Z,99765.45
2018-12-24T20:25:29.294Z,99781.15
2018-12-24T20:27:59.649Z,99791.52
2018-12-24T20:30:31.486Z,99783.88
2018-12-24T20:33:01.890Z,99776.69
2018-12-24T20:35:32.141Z,99775.88
2018-12-24T20:38:02.411Z,99775.75
2018-12-24T20:40:32.685Z,99775.55
2018-12-24T20:43:02.935Z,99792.31
2018-12-24T20:45:33.367Z,99800.61
2018-12-24T20:48:06.836Z,99801.03
2018-12-24T20:50:35.990Z,99805.66
2018-12-24T20:53:06.400Z,99812.56
2018-12-24T20:55:36.649Z,99826.72
2018-12-24T20:58:06.935Z,99840.00
2018-12-24T21:00:37.194Z,99826.70
2018-12-24T21:03:07.408Z,99828.26
2018-12-24T21:05:37.645Z,99830.92
2018-12-24T21:08:08.064Z,99844.36
2018-12-24T21:10:38.496Z,99851.42
2018-12-24T21:13:08.830Z,99852.56
2018-12-24T21:15:39.091Z,99840.71
2018-12-24T21:18:14.995Z,99843.48
2018-12-24T21:20:41.491Z,99843.48
2018-12-24T21:23:21.441Z,99838.31
2018-12-24T21:25:51.632Z,99832.53
2018-12-24T21:28:21.901Z,99826.95
2018-12-24T21:30:52.092Z,99822.33
2018-12-24T21:33:22.296Z,99818.48
2018-12-24T21:35:52.556Z,99820.52
2018-12-24T21:38:22.876Z,99818.13
2018-12-24T21:40:53.110Z,99822.59
2018-12-24T21:43:23.589Z,99816.84
2018-12-24T21:45:53.961Z,99820.39
2018-12-24T21:48:24.376Z,99821.60
2018-12-24T21:50:54.711Z,99814.61
2018-12-24T21:53:25.036Z,99814.48
2018-12-24T21:55:55.302Z,99818.73
2018-12-24T21:58:25.581Z,99821.64
2018-12-24T22:00:56.190Z,99819.14
2018-12-24T22:03:26.549Z,99820.14
2018-12-24T22:05:56.770Z,99819.59
2018-12-24T22:08:27.040Z,99821.13
2018-12-24T22:10:57.199Z,99824.92
2018-12-24T22:13:27.478Z,99823.75
2018-12-24T22:15:57.635Z,99819.95
2018-12-24T22:18:32.220Z,99830.75
2018-12-24T22:20:59.762Z,99836.27
2018-12-24T22:23:29.995Z,99842.59
2018-12-24T22:26:00.190Z,99845.39
2018-12-24T22:28:30.507Z,99849.37
2018-12-24T22:31:00.695Z,99845.26
2018-12-24T22:33:30.906Z,99837.22
2018-12-24T22:36:01.145Z,99839.38
2018-12-24T22:38:32.724Z,99842.22
2018-12-24T22:41:03.236Z,99844.02
2018-12-24T22:43:33.416Z,99836.97
2018-12-24T22:46:03.698Z,99844.55
2018-12-24T22:48:40.653Z,99847.80
2018-12-24T22:51:05.872Z,99842.15
2018-12-24T22:53:36.124Z,99845.23
2018-12-24T22:56:06.376Z,99840.91
2018-12-24T22:58:36.571Z,99845.42
2018-12-24T23:01:06.949Z,99844.30
2018-12-24T23:03:37.172Z,99845.63
2018-12-24T23:06:07.396Z,99849.35
2018-12-24T23:08:37.630Z,99852.07
2018-12-24T23:11:07.861Z,99849.34
2018-12-24T23:13:38.051Z,99854.19
2018-12-24T23:16:08.392Z,99864.13
2018-12-24T23:18:38.762Z,99859.67
2018-12-24T23:21:09.376Z,99869.94
2018-12-24T23:23:39.726Z,99870.41
2018-12-24T23:26:11.053Z,99873.27
2018-12-24T23:28:41.950Z,99867.64
2018-12-24T23:31:12.264Z,99871.85
2018-12-24T23:33:42.496Z,99879.38
2018-12-24T23:36:12.670Z,99873.73
2018-12-24T23:38:42.838Z,99876.09
2018-12-24T23:41:12.995Z,99874.77
2018-12-24T23:43:43.252Z,99871.08
2018-12-24T23:46:13.427Z,99867.00
2018-12-24T23:48:43.656Z,99864.92
2018-12-24T23:51:13.771Z,99866.97
2018-12-24T23:53:43.926Z,99861.06
2018-12-24T23:56:14.147Z,99859.44
2018-12-24T23:58:44.376Z,99851.48
